createdAt,value
2018-03-25T00:00:53.083Z,19.67
2018-03-25T00:03:20.849Z,18.50
2018-03-25T00:05:48.597Z,17.95
2018-03-25T00:08:16.331Z,17.75
2018-03-25T00:10:44.032Z,15.35
2018-03-25T00:13:11.765Z,17.95
2018-03-25T00:15:39.493Z,17.00
2018-03-25T00:18:07.754Z,18.45
2018-03-25T00:20:36.858Z,17.37
2018-03-25T00:23:04.700Z,17.75
2018-03-25T00:25:32.430Z,16.70
2018-03-25T00:28:00.190Z,17.45
2018-03-25T00:30:27.914Z,17.48
2018-03-25T00:32:56.080Z,17.58
2018-03-25T00:35:24.213Z,15.55
2018-03-25T00:37:51.894Z,16.62
2018-03-25T00:40:19.738Z,16.90
2018-03-25T00:42:47.442Z,15.23
2018-03-25T00:45:15.167Z,17.75
2018-03-25T00:47:42.942Z,18.85
2018-03-25T00:52:49.204Z,16.65
2018-03-25T00:55:16.912Z,18.20
2018-03-25T00:57:44.730Z,18.83
2018-03-25T01:00:12.625Z,18.58
2018-03-25T01:02:40.352Z,17.58
2018-03-25T01:05:08.076Z,18.20
2018-03-25T01:07:35.819Z,15.88
2018-03-25T01:10:03.543Z,17.75
2018-03-25T01:12:31.349Z,17.33
2018-03-25T01:14:59.057Z,16.12
2018-03-25T01:17:27.167Z,15.02
2018-03-25T01:19:54.903Z,18.65
2018-03-25T01:22:22.637Z,17.58
2018-03-25T01:24:50.381Z,19.20
2018-03-25T01:27:18.211Z,17.65
2018-03-25T01:29:46.024Z,17.05
2018-03-25T01:32:13.731Z,18.62
2018-03-25T01:34:41.473Z,19.20
2018-03-25T01:37:09.259Z,17.50
2018-03-25T01:39:36.981Z,17.70
2018-03-25T01:42:04.721Z,17.37
2018-03-25T01:44:32.430Z,18.15
2018-03-25T01:47:00.581Z,16.70
2018-03-25T01:49:28.310Z,19.83
2018-03-25T01:51:56.090Z,18.77
2018-03-25T01:54:23.861Z,18.30
2018-03-25T01:56:51.632Z,19.45
2018-03-25T01:59:19.370Z,18.25
2018-03-25T02:01:47.169Z,20.77
2018-03-25T02:04:14.954Z,19.80
2018-03-25T02:06:42.676Z,18.65
2018-03-25T02:09:10.448Z,18.15
2018-03-25T02:11:38.205Z,17.02
2018-03-25T02:14:06.099Z,17.90
2018-03-25T02:16:33.798Z,19.50
2018-03-25T02:19:01.524Z,19.25
2018-03-25T02:21:29.350Z,18.75
2018-03-25T02:23:57.243Z,19.35
2018-03-25T02:26:25.077Z,18.95
2018-03-25T02:28:52.896Z,17.50
2018-03-25T02:31:20.640Z,17.87
2018-03-25T02:33:48.400Z,18.83
2018-03-25T02:36:16.197Z,17.62
2018-03-25T02:38:43.936Z,17.65
2018-03-25T02:41:11.660Z,17.77
2018-03-25T02:43:39.447Z,18.35
2018-03-25T02:46:07.222Z,18.70
2018-03-25T02:48:34.959Z,18.48
2018-03-25T02:51:02.731Z,17.48
2018-03-25T02:53:30.574Z,18.20
2018-03-25T02:55:58.323Z,18.83
2018-03-25T02:58:26.555Z,20.00
2018-03-25T03:00:54.291Z,19.27
2018-03-25T03:03:22.039Z,17.48
2018-03-25T03:05:49.869Z,18.25
2018-03-25T03:08:17.629Z,18.10
2018-03-25T03:10:45.366Z,19.37
2018-03-25T03:13:13.138Z,20.10
2018-03-25T03:15:40.905Z,18.75
2018-03-25T03:18:08.643Z,20.27
2018-03-25T03:20:36.369Z,18.48
2018-03-25T03:23:04.527Z,19.30
2018-03-25T03:25:32.338Z,18.80
2018-03-25T03:28:00.125Z,18.50
2018-03-25T03:30:27.854Z,19.85
2018-03-25T03:32:56.063Z,20.60
2018-03-25T03:35:23.826Z,18.92
2018-03-25T03:37:51.520Z,18.98
2018-03-25T03:40:19.361Z,19.08
2018-03-25T03:42:47.114Z,20.42
2018-03-25T03:45:14.924Z,19.42
2018-03-25T03:47:42.715Z,18.58
2018-03-25T03:50:10.961Z,19.40
2018-03-25T03:52:39.175Z,18.60
2018-03-25T03:55:06.918Z,17.15
2018-03-25T03:57:34.631Z,20.30
2018-03-25T04:00:02.387Z,18.70
2018-03-25T04:02:30.127Z,18.50
2018-03-25T04:04:57.934Z,18.48
2018-03-25T04:07:25.684Z,19.77
2018-03-25T04:09:53.441Z,18.33
2018-03-25T04:12:21.212Z,19.08
2018-03-25T04:14:48.983Z,20.37
2018-03-25T04:17:16.735Z,19.92
2018-03-25T04:19:44.467Z,20.33
2018-03-25T04:22:12.223Z,20.48
2018-03-25T04:24:39.959Z,20.58
2018-03-25T04:27:07.808Z,20.98
2018-03-25T04:29:35.572Z,20.77
2018-03-25T04:32:03.609Z,20.60
2018-03-25T04:34:31.399Z,19.40
2018-03-25T04:36:59.192Z,19.65
2018-03-25T04:39:26.937Z,20.30
2018-03-25T04:41:54.705Z,22.45
2018-03-25T04:44:22.498Z,19.90
2018-03-25T04:46:50.307Z,18.90
2018-03-25T04:49:18.574Z,20.42
2018-03-25T04:51:46.328Z,20.02
2018-03-25T04:54:14.466Z,19.30
2018-03-25T04:56:42.229Z,20.52
2018-03-25T04:59:10.038Z,19.12
2018-03-25T05:01:37.792Z,20.08
2018-03-25T05:04:05.553Z,20.12
2018-03-25T05:06:33.366Z,19.77
2018-03-25T05:09:01.091Z,19.10
2018-03-25T05:11:28.901Z,18.77
2018-03-25T05:13:56.679Z,20.52
2018-03-25T05:16:24.436Z,21.80
2018-03-25T05:18:52.172Z,23.52
2018-03-25T05:21:19.926Z,20.83
2018-03-25T05:23:47.710Z,20.75
2018-03-25T05:26:15.492Z,20.45
2018-03-25T05:28:43.288Z,21.48
2018-03-25T05:31:11.102Z,20.23
2018-03-25T05:33:38.921Z,21.50
2018-03-25T05:36:06.672Z,21.48
2018-03-25T05:38:34.455Z,21.58
2018-03-25T05:41:02.302Z,20.55
2018-03-25T05:43:30.108Z,19.02
2018-03-25T05:45:58.322Z,20.80
2018-03-25T05:48:26.052Z,21.25
2018-03-25T05:50:54.234Z,19.80
2018-03-25T05:53:22.033Z,22.62
2018-03-25T05:55:49.876Z,19.77
2018-03-25T05:58:17.678Z,18.87
2018-03-25T06:00:45.425Z,21.77
2018-03-25T06:03:13.180Z,21.83
2018-03-25T06:05:41.120Z,19.65
2018-03-25T06:08:08.861Z,20.55
2018-03-25T06:10:36.706Z,19.77
2018-03-25T06:13:04.474Z,20.35
2018-03-25T06:15:32.242Z,19.77
2018-03-25T06:17:59.952Z,21.77
2018-03-25T06:20:28.091Z,18.92
2018-03-25T06:23:07.101Z,19.17
2018-03-25T06:25:34.998Z,19.70
2018-03-25T06:28:03.058Z,18.50
2018-03-25T06:30:30.969Z,19.70
2018-03-25T06:32:58.825Z,20.23
2018-03-25T06:35:26.971Z,20.20
2018-03-25T06:37:54.928Z,21.90
2018-03-25T06:40:22.670Z,20.45
2018-03-25T06:42:50.527Z,22.55
2018-03-25T06:45:18.370Z,19.35
2018-03-25T06:47:46.607Z,21.42
2018-03-25T06:50:14.353Z,18.58
2018-03-25T06:52:42.208Z,19.77
2018-03-25T06:55:10.059Z,20.98
2018-03-25T06:57:41.390Z,21.42
2018-03-25T07:00:09.525Z,20.77
2018-03-25T07:02:37.338Z,21.20
2018-03-25T07:05:05.468Z,21.73
2018-03-25T07:07:33.339Z,21.00
2018-03-25T07:10:01.342Z,20.70
2018-03-25T07:12:29.127Z,21.75
2018-03-25T07:14:56.875Z,21.80
2018-03-25T07:17:24.723Z,24.00
2018-03-25T07:19:52.670Z,22.77
2018-03-25T07:22:20.890Z,20.65
2018-03-25T07:24:49.101Z,20.60
2018-03-25T07:27:16.854Z,22.90
2018-03-25T07:29:44.623Z,22.10
2018-03-25T07:32:12.485Z,18.62
2018-03-25T07:34:40.264Z,18.35
2018-03-25T07:37:08.051Z,16.00
2018-03-25T07:39:35.831Z,16.37
2018-03-25T07:42:03.570Z,16.42
2018-03-25T07:44:31.322Z,17.45
2018-03-25T07:46:59.206Z,18.10
2018-03-25T07:49:26.953Z,18.42
2018-03-25T07:51:54.720Z,14.93
2018-03-25T07:54:22.637Z,15.13
2018-03-25T07:56:50.415Z,13.27
2018-03-25T07:59:18.562Z,12.30
2018-03-25T08:01:46.279Z,13.75
2018-03-25T08:04:14.024Z,13.57
2018-03-25T08:06:41.782Z,12.88
2018-03-25T08:09:09.961Z,14.65
2018-03-25T08:11:37.716Z,15.10
2018-03-25T08:14:05.474Z,14.32
2018-03-25T08:16:33.611Z,15.07
2018-03-25T08:19:01.388Z,13.45
2018-03-25T08:21:29.157Z,15.10
2018-03-25T08:23:56.948Z,15.23
2018-03-25T08:26:24.842Z,15.50
2018-03-25T08:28:52.615Z,14.27
2018-03-25T08:31:20.375Z,14.40
2018-03-25T08:33:48.132Z,14.87
2018-03-25T08:36:16.143Z,14.18
2018-03-25T08:38:43.855Z,16.90
2018-03-25T08:41:11.588Z,16.73
2018-03-25T08:43:39.363Z,16.30
2018-03-25T08:46:07.071Z,16.75
2018-03-25T08:48:35.002Z,15.95
2018-03-25T08:51:02.723Z,15.35
2018-03-25T08:53:30.468Z,15.23
2018-03-25T08:55:58.167Z,16.42
2018-03-25T09:01:00.369Z,15.70
2018-03-25T09:03:28.155Z,14.90
2018-03-25T09:05:56.278Z,16.45
2018-03-25T09:08:24.019Z,18.23
2018-03-25T09:10:51.758Z,17.02
2018-03-25T09:13:19.736Z,15.30
2018-03-25T09:15:47.519Z,16.37
2018-03-25T09:18:15.287Z,16.50
2018-03-25T09:20:43.042Z,15.63
2018-03-25T09:23:10.900Z,15.03
2018-03-25T09:25:38.998Z,17.53
2018-03-25T09:28:06.760Z,16.27
2018-03-25T09:30:34.522Z,16.40
2018-03-25T09:33:02.348Z,16.57
2018-03-25T09:35:30.126Z,17.20
2018-03-25T09:37:57.935Z,16.40
2018-03-25T09:40:25.684Z,16.03
2018-03-25T09:42:53.450Z,15.57
2018-03-25T09:45:26.738Z,17.20
2018-03-25T09:47:54.532Z,16.57
2018-03-25T09:50:22.790Z,23.03
2018-03-25T09:52:50.479Z,20.67
2018-03-25T09:55:18.765Z,18.17
2018-03-25T09:57:47.112Z,16.07
2018-03-25T10:00:15.018Z,18.00
2018-03-25T10:02:42.879Z,16.40
2018-03-25T10:05:10.711Z,17.87
2018-03-25T10:07:38.520Z,19.10
2018-03-25T10:10:06.282Z,18.53
2018-03-25T10:12:34.397Z,18.70
2018-03-25T10:15:02.104Z,17.93
2018-03-25T10:17:30.058Z,17.87
2018-03-25T10:19:57.796Z,16.27
2018-03-25T10:22:25.579Z,18.00
2018-03-25T10:24:53.378Z,19.27
2018-03-25T10:27:21.115Z,19.23
2018-03-25T10:29:50.814Z,18.70
2018-03-25T10:32:18.594Z,17.50
2018-03-25T10:34:46.429Z,18.80
2018-03-25T10:37:14.199Z,17.50
2018-03-25T10:42:38.378Z,18.70
2018-03-25T10:45:10.021Z,18.30
2018-03-25T10:47:41.319Z,19.03
2018-03-25T10:50:09.100Z,18.80
2018-03-25T10:52:38.502Z,18.53
2018-03-25T10:55:09.223Z,20.10
2018-03-25T10:57:37.203Z,18.87
2018-03-25T11:00:05.043Z,20.07
2018-03-25T11:02:32.779Z,20.27
2018-03-25T11:05:00.500Z,19.23
2018-03-25T11:07:28.259Z,18.80
2018-03-25T11:09:56.726Z,19.80
2018-03-25T11:14:56.579Z,19.33
2018-03-25T11:17:25.280Z,18.87
2018-03-25T11:19:55.136Z,20.33
2018-03-25T11:22:23.406Z,19.00
2018-03-25T11:24:51.174Z,19.97
2018-03-25T11:27:18.973Z,18.73
2018-03-25T11:29:47.820Z,19.40
2018-03-25T11:32:16.009Z,18.00
2018-03-25T11:34:43.734Z,19.30
2018-03-25T11:39:49.767Z,20.03
2018-03-25T11:42:17.596Z,20.00
2018-03-25T11:44:46.571Z,18.90
2018-03-25T11:47:14.440Z,19.57
2018-03-25T11:49:42.609Z,19.00
2018-03-25T11:52:10.791Z,19.07
2018-03-25T11:54:38.523Z,19.70
2018-03-25T11:57:06.790Z,19.47
2018-03-25T12:05:31.901Z,19.40
2018-03-25T12:08:00.547Z,20.00
2018-03-25T12:10:29.303Z,18.60
2018-03-25T12:12:57.158Z,18.27
2018-03-25T12:15:25.605Z,17.57
2018-03-25T12:17:55.144Z,19.33
2018-03-25T12:20:27.351Z,20.03
2018-03-25T12:23:01.594Z,17.20
2018-03-25T12:25:37.142Z,19.53
2018-03-25T12:28:05.476Z,17.73
2018-03-25T12:30:34.052Z,16.97
2018-03-25T12:33:01.805Z,19.43
2018-03-25T12:35:29.499Z,16.70
2018-03-25T12:37:57.191Z,19.03
2018-03-25T12:40:24.902Z,15.00
2018-03-25T12:42:52.538Z,16.43
2018-03-25T12:45:20.243Z,18.20
2018-03-25T12:47:47.906Z,17.70
2018-03-25T12:50:15.578Z,19.80
2018-03-25T12:52:43.254Z,19.17
2018-03-25T12:55:10.929Z,17.97
2018-03-25T12:57:38.631Z,18.10
2018-03-25T13:00:07.526Z,17.30
2018-03-25T13:02:35.213Z,16.57
2018-03-25T13:05:02.891Z,18.00
2018-03-25T13:07:30.553Z,17.60
2018-03-25T13:09:59.935Z,18.57
2018-03-25T13:12:27.662Z,18.07
2018-03-25T13:14:55.329Z,16.00
2018-03-25T13:17:23.015Z,16.27
2018-03-25T13:22:42.270Z,18.03
2018-03-25T13:25:10.378Z,17.23
2018-03-25T13:27:38.065Z,16.97
2018-03-25T13:30:05.738Z,17.87
2018-03-25T13:35:42.181Z,15.80
2018-03-25T13:38:09.892Z,17.80
2018-03-25T13:40:37.638Z,17.10
2018-03-25T13:43:05.299Z,17.30
2018-03-25T13:45:32.986Z,17.70
2018-03-25T13:48:01.656Z,17.23
2018-03-25T13:50:29.323Z,17.33
2018-03-25T13:52:57.027Z,16.63
2018-03-25T13:55:25.151Z,17.37
2018-03-25T13:57:52.856Z,15.37
2018-03-25T14:00:20.949Z,16.93
2018-03-25T14:02:48.641Z,17.83
2018-03-25T14:05:16.318Z,17.20
2018-03-25T14:07:44.007Z,16.30
2018-03-25T14:10:11.687Z,17.30
2018-03-25T14:12:39.377Z,17.10
2018-03-25T14:15:07.056Z,16.70
2018-03-25T14:17:34.739Z,16.63
2018-03-25T14:20:02.415Z,18.33
2018-03-25T14:22:30.115Z,20.07
2018-03-25T14:24:57.770Z,17.90
2018-03-25T14:27:25.475Z,15.47
2018-03-25T14:29:53.206Z,17.07
2018-03-25T14:32:20.825Z,16.00
2018-03-25T14:34:48.505Z,16.43
2018-03-25T14:37:16.598Z,17.03
2018-03-25T14:39:44.923Z,16.97
2018-03-25T14:42:12.719Z,15.97
2018-03-25T14:44:40.870Z,15.60
2018-03-25T14:47:08.622Z,16.10
2018-03-25T14:49:36.479Z,16.40
2018-03-25T14:52:04.505Z,17.83
2018-03-25T14:57:09.843Z,17.20
2018-03-25T14:59:37.601Z,17.37
2018-03-25T15:02:05.415Z,16.60
2018-03-25T15:04:33.265Z,17.57
2018-03-25T15:07:01.964Z,15.87
2018-03-25T15:09:29.724Z,17.37
2018-03-25T15:11:57.499Z,16.57
2018-03-25T15:14:25.255Z,14.97
2018-03-25T15:16:52.995Z,16.80
2018-03-25T15:19:20.819Z,16.10
2018-03-25T15:21:48.584Z,17.80
2018-03-25T15:24:16.303Z,17.33
2018-03-25T15:26:44.264Z,16.80
2018-03-25T15:29:12.019Z,16.80
2018-03-25T15:31:39.792Z,16.87
2018-03-25T15:34:08.526Z,17.37
2018-03-25T15:36:36.288Z,18.60
2018-03-25T15:39:04.133Z,19.00
2018-03-25T15:41:32.591Z,17.67
2018-03-25T15:44:00.414Z,17.37
2018-03-25T15:46:29.190Z,18.30
2018-03-25T15:48:57.471Z,16.70
2018-03-25T15:51:25.990Z,18.93
2018-03-25T15:53:55.104Z,17.73
2018-03-25T15:56:23.218Z,18.80
2018-03-25T15:59:00.103Z,18.97
2018-03-25T16:01:31.808Z,19.20
2018-03-25T16:04:01.020Z,18.97
2018-03-25T16:06:29.758Z,17.00
2018-03-25T16:09:01.409Z,19.20
2018-03-25T16:11:32.253Z,20.93
2018-03-25T16:14:00.163Z,20.73
2018-03-25T16:16:29.568Z,19.37
2018-03-25T16:18:58.205Z,19.30
2018-03-25T16:21:26.570Z,17.90
2018-03-25T16:23:55.714Z,19.60
2018-03-25T16:26:24.222Z,18.07
2018-03-25T16:28:52.565Z,20.17
2018-03-25T16:31:21.154Z,19.83
2018-03-25T16:36:52.762Z,22.13
2018-03-25T16:39:20.882Z,22.80
2018-03-25T16:41:49.075Z,26.40
2018-03-25T16:44:17.513Z,24.77
2018-03-25T16:46:45.736Z,26.30
2018-03-25T16:49:15.899Z,25.53
2018-03-25T16:51:45.023Z,24.40
2018-03-25T16:54:13.920Z,24.57
2018-03-25T16:56:44.005Z,24.23
2018-03-25T16:59:12.007Z,23.80
2018-03-25T17:01:40.352Z,21.57
2018-03-25T17:04:08.820Z,21.97
2018-03-25T17:06:37.602Z,21.27
2018-03-25T17:09:06.162Z,23.50
2018-03-25T17:11:34.154Z,22.20
2018-03-25T17:14:02.706Z,23.63
2018-03-25T17:16:31.251Z,23.77
2018-03-25T17:18:59.707Z,21.67
2018-03-25T17:21:28.508Z,21.20
2018-03-25T17:23:56.986Z,22.93
2018-03-25T17:26:25.397Z,21.47
2018-03-25T17:28:53.291Z,21.40
2018-03-25T17:31:21.185Z,21.40
2018-03-25T17:33:49.562Z,21.40
2018-03-25T17:36:17.716Z,23.33
2018-03-25T17:38:45.455Z,24.30
2018-03-25T17:41:13.263Z,21.17
2018-03-25T17:43:47.029Z,23.50
2018-03-25T17:46:14.841Z,22.17
2018-03-25T17:48:44.342Z,23.20
2018-03-25T17:51:13.105Z,21.93
2018-03-25T17:53:40.870Z,24.30
2018-03-25T17:56:08.596Z,20.10
2018-03-25T17:58:36.446Z,26.20
2018-03-25T18:01:04.587Z,24.40
2018-03-25T18:03:32.332Z,26.40
2018-03-25T18:06:00.089Z,26.27
2018-03-25T18:08:27.848Z,29.50
2018-03-25T18:10:56.064Z,27.30
2018-03-25T18:13:23.787Z,28.00
2018-03-25T18:15:51.558Z,25.10
2018-03-25T18:18:19.321Z,26.77
2018-03-25T18:20:56.293Z,27.10
2018-03-25T18:23:15.968Z,27.00
2018-03-25T18:25:43.728Z,27.73
2018-03-25T18:28:11.492Z,26.60
2018-03-25T18:30:39.264Z,30.43
2018-03-25T18:33:06.975Z,27.17
2018-03-25T18:35:34.767Z,29.10
2018-03-25T18:38:02.515Z,29.10
2018-03-25T18:40:30.366Z,28.20
2018-03-25T18:42:58.180Z,27.43
2018-03-25T18:45:27.931Z,28.07
2018-03-25T18:47:55.716Z,29.23
2018-03-25T18:50:23.506Z,27.37
2018-03-25T18:55:42.159Z,29.10
2018-03-25T18:58:09.882Z,31.47
2018-03-25T19:00:37.611Z,29.67
2018-03-25T19:03:05.402Z,28.57
2018-03-25T19:05:33.170Z,28.47
2018-03-25T19:08:02.963Z,28.53
2018-03-25T19:10:30.750Z,29.37
2018-03-25T19:12:58.537Z,31.40
2018-03-25T19:15:26.721Z,28.33
2018-03-25T19:17:54.485Z,28.17
2018-03-25T19:20:22.249Z,29.93
2018-03-25T19:22:50.101Z,30.83
2018-03-25T19:25:17.944Z,30.87
2018-03-25T19:27:45.728Z,31.80
2018-03-25T19:30:13.518Z,30.10
2018-03-25T19:32:41.238Z,30.13
2018-03-25T19:35:09.043Z,30.97
2018-03-25T19:37:36.790Z,30.57
2018-03-25T19:40:04.611Z,29.30
2018-03-25T19:42:32.369Z,30.27
2018-03-25T19:45:00.575Z,31.40
2018-03-25T19:47:28.393Z,29.60
2018-03-25T19:49:56.437Z,27.87
2018-03-25T19:52:24.168Z,31.53
2018-03-25T19:54:52.023Z,28.43
2018-03-25T19:57:19.748Z,28.80
2018-03-25T19:59:47.533Z,31.40
2018-03-25T20:02:15.650Z,30.53
2018-03-25T20:04:43.431Z,30.93
2018-03-25T20:07:11.202Z,33.20
2018-03-25T20:09:39.078Z,30.40
2018-03-25T20:12:08.151Z,28.70
2018-03-25T20:14:35.950Z,33.07
2018-03-25T20:17:04.348Z,30.87
2018-03-25T20:19:32.172Z,31.20
2018-03-25T20:22:01.038Z,32.27
2018-03-25T20:24:29.743Z,31.23
2018-03-25T20:26:57.911Z,31.23
2018-03-25T20:29:25.862Z,30.47
2018-03-25T20:31:53.566Z,28.13
2018-03-25T20:34:21.363Z,31.90
2018-03-25T20:36:49.481Z,30.63
2018-03-25T20:39:17.336Z,28.40
2018-03-25T20:41:45.110Z,34.00
2018-03-25T20:44:12.841Z,31.77
2018-03-25T20:46:40.692Z,32.83
2018-03-25T20:49:08.421Z,34.23
2018-03-25T20:51:36.325Z,30.93
2018-03-25T20:54:04.071Z,32.50
2018-03-25T20:56:31.862Z,34.00
2018-03-25T20:58:59.704Z,30.97
2018-03-25T21:01:27.490Z,34.77
2018-03-25T21:03:55.623Z,31.87
2018-03-25T21:06:23.464Z,29.53
2018-03-25T21:08:51.187Z,31.60
2018-03-25T21:11:19.010Z,32.17
2018-03-25T21:13:46.798Z,31.13
2018-03-25T21:16:14.592Z,32.60
2018-03-25T21:18:42.391Z,33.40
2018-03-25T21:21:10.123Z,34.80
2018-03-25T21:23:38.084Z,33.60
2018-03-25T21:26:05.772Z,32.50
2018-03-25T21:28:33.523Z,33.30
2018-03-25T21:31:01.750Z,31.53
2018-03-25T21:33:29.498Z,30.30
2018-03-25T21:35:57.343Z,28.87
2018-03-25T21:38:25.133Z,28.00
2018-03-25T21:40:52.887Z,30.13
2018-03-25T21:43:20.655Z,31.80
2018-03-25T21:45:48.424Z,32.93
2018-03-25T21:48:16.154Z,32.30
2018-03-25T21:50:43.959Z,31.93
2018-03-25T21:53:12.929Z,32.13
2018-03-25T21:55:41.313Z,33.40
2018-03-25T21:58:09.125Z,31.43
2018-03-25T22:00:36.883Z,31.60
2018-03-25T22:03:04.650Z,33.23
2018-03-25T22:05:32.410Z,31.50
2018-03-25T22:08:00.189Z,31.40
2018-03-25T22:10:28.749Z,32.73
2018-03-25T22:12:56.601Z,32.23
2018-03-25T22:15:24.997Z,34.40
2018-03-25T22:17:52.814Z,32.33
2018-03-25T22:20:21.003Z,29.67
2018-03-25T22:22:48.795Z,31.30
2018-03-25T22:25:16.549Z,28.50
2018-03-25T22:27:44.542Z,31.92
2018-03-25T22:30:12.622Z,28.30
2018-03-25T22:32:40.381Z,31.10
2018-03-25T22:35:08.118Z,29.02
2018-03-25T22:37:35.860Z,31.77
2018-03-25T22:40:04.029Z,31.60
2018-03-25T22:42:32.163Z,31.97
2018-03-25T22:45:00.061Z,31.07
2018-03-25T22:47:27.778Z,31.08
2018-03-25T22:49:55.491Z,33.30
2018-03-25T22:52:23.647Z,31.03
2018-03-25T22:54:51.376Z,31.30
2018-03-25T22:57:19.224Z,31.40
2018-03-25T22:59:46.966Z,30.83
2018-03-25T23:02:14.722Z,29.27
2018-03-25T23:04:42.859Z,32.10
2018-03-25T23:07:10.607Z,33.00
2018-03-25T23:09:38.369Z,32.20
2018-03-25T23:12:06.075Z,32.55
2018-03-25T23:14:34.272Z,30.35
2018-03-25T23:17:02.418Z,31.00
2018-03-25T23:19:30.155Z,33.22
2018-03-25T23:21:57.951Z,32.15
2018-03-25T23:24:25.725Z,33.20
2018-03-25T23:26:53.506Z,32.73
2018-03-25T23:29:21.690Z,32.50
2018-03-25T23:31:49.509Z,32.45
2018-03-25T23:34:17.317Z,30.97
2018-03-25T23:36:45.436Z,33.35
2018-03-25T23:39:13.219Z,35.28
2018-03-25T23:41:40.972Z,33.97
2018-03-25T23:44:08.759Z,33.40
2018-03-25T23:46:36.538Z,34.53
2018-03-25T23:49:04.249Z,33.15
2018-03-25T23:51:32.000Z,31.90
2018-03-25T23:53:59.778Z,32.83
2018-03-25T23:56:27.602Z,29.63
2018-03-25T23:58:55.330Z,33.03
